Terminal Aerodrome Forecast
Issued by NWS North Platte, NE

Home | Current Version | Previous Version | Text Only | Print | Product List | Glossary On
Versions: 1 2 3 4 5 6 7 8 9 10 11 12 13 14 15 16 17 18 19 20 21 22 23 24 25 26
000
FTUS43 KLBF 052300
TAFLBF
TAF
KLBF 052320Z 0600/0624 17004KT P6SM -RA SCT015 OVC090
     FM060300 13015KT P6SM -DZ OVC015
     FM060800 13008KT 3SM -DZ BR OVC005
     FM061100 VRB05KT 3/4SM -DZ BR OVC003
     FM061400 14008KT 4SM BR OVC008
     FM061600 14009KT P6SM OVC008
     FM061900 16009KT P6SM SCT025 OVC050 PROB30 0621/0624 3SM +TSRA
      OVC020CB=

USA.gov is the U.S. government's official web portal to all federal, state and local government web resources and services.